Terminal Aerodrome Forecast
Issued by NWS

Home | Current Version | Previous Version | Graphics & Text | Print | Product List | Glossary On
Versions: 1 2 3 4 5 6 7 8 9 10 11 12 13 14 15 16 17 18 19 20 21 22 23 24 25
524
FTUS43 KGRB 091132
TAFAUW
TAF
KAUW 091132Z 0912/1012 34010G17KT P6SM BKN020 BKN040
     FM091800 31010G17KT P6SM SCT035 BKN200
     FM092300 28006KT P6SM BKN120
     FM100400 27006KT P6SM BKN060
      TEMPO 1010/1012 BKN025=

USA.gov is the U.S. government's official web portal to all federal, state and local government web resources and services.